createdAt,value
2022-10-19T00:01:07.544Z,36.80
2022-10-19T00:03:36.104Z,38.05
2022-10-19T00:06:30.393Z,38.97
2022-10-19T00:08:57.348Z,41.00
2022-10-19T00:11:24.948Z,43.33
2022-10-19T00:13:52.394Z,40.22
2022-10-19T00:16:20.351Z,39.20
2022-10-19T00:18:47.447Z,38.70
2022-10-19T00:21:17.851Z,40.88
2022-10-19T00:23:46.086Z,39.97
2022-10-19T00:26:14.372Z,38.42
2022-10-19T00:28:42.082Z,38.03
2022-10-19T00:31:14.670Z,38.40
2022-10-19T00:33:43.250Z,38.58
2022-10-19T00:36:22.342Z,38.00
2022-10-19T00:38:50.047Z,37.53
2022-10-19T00:41:18.605Z,40.05
2022-10-19T00:44:00.123Z,40.75
2022-10-19T00:46:29.293Z,40.17
2022-10-19T00:49:11.073Z,37.97
2022-10-19T00:51:42.295Z,41.13
2022-10-19T00:54:10.542Z,41.20
2022-10-19T00:56:41.348Z,38.47
2022-10-19T00:59:10.495Z,39.05
2022-10-19T01:01:37.508Z,39.63
2022-10-19T01:04:05.151Z,40.40
2022-10-19T01:06:34.157Z,40.75
2022-10-19T01:09:01.188Z,39.53
2022-10-19T01:11:50.873Z,38.47
2022-10-19T01:14:48.878Z,35.63
2022-10-19T01:17:30.148Z,37.53
2022-10-19T01:20:25.264Z,35.72
2022-10-19T01:23:04.326Z,37.22
2022-10-19T01:25:55.662Z,38.13
2022-10-19T01:28:38.275Z,36.00
2022-10-19T01:31:22.090Z,36.50
2022-10-19T01:33:52.909Z,37.63
2022-10-19T01:38:58.888Z,40.45
2022-10-19T01:41:41.851Z,36.53
2022-10-19T01:44:16.020Z,37.72
2022-10-19T01:47:16.956Z,36.25
2022-10-19T01:49:53.728Z,34.78
2022-10-19T01:52:23.634Z,35.08
2022-10-19T01:54:54.507Z,33.15
2022-10-19T01:57:26.994Z,32.13
2022-10-19T01:59:55.810Z,34.17
2022-10-19T02:02:26.102Z,34.60
2022-10-19T02:04:55.231Z,34.38
2022-10-19T02:07:24.569Z,35.23
2022-10-19T02:09:51.599Z,35.15
2022-10-19T02:12:20.592Z,35.10
2022-10-19T02:14:53.356Z,37.07
2022-10-19T02:17:25.585Z,37.92
2022-10-19T02:19:53.948Z,36.03
2022-10-19T02:22:22.136Z,35.25
2022-10-19T02:24:49.118Z,37.00
2022-10-19T02:27:16.945Z,36.65
2022-10-19T02:29:43.958Z,37.45
2022-10-19T02:32:12.029Z,37.78
2022-10-19T02:34:40.017Z,36.58
2022-10-19T02:37:07.513Z,38.67
2022-10-19T02:39:34.581Z,39.63
2022-10-19T02:42:09.359Z,38.92
2022-10-19T02:44:56.447Z,39.45
2022-10-19T02:47:31.171Z,39.97
2022-10-19T02:49:58.397Z,39.40
2022-10-19T02:52:25.440Z,40.08
2022-10-19T02:54:52.459Z,40.22
2022-10-19T02:57:21.654Z,40.10
2022-10-19T02:59:49.036Z,40.45
2022-10-19T03:02:17.352Z,43.17
2022-10-19T03:04:45.407Z,42.78
2022-10-19T03:07:16.918Z,42.72
2022-10-19T03:09:44.767Z,40.75
2022-10-19T03:12:12.654Z,42.17
2022-10-19T03:14:39.910Z,39.88
2022-10-19T03:17:06.984Z,41.33
2022-10-19T03:19:35.617Z,40.65
2022-10-19T03:22:02.713Z,40.20
2022-10-19T03:24:30.804Z,40.35
2022-10-19T03:26:57.932Z,42.85
2022-10-19T03:29:24.967Z,39.85
2022-10-19T03:31:51.952Z,40.35
2022-10-19T03:34:19.014Z,41.55
2022-10-19T03:36:46.234Z,39.50
2022-10-19T03:39:15.014Z,41.60
2022-10-19T03:41:42.731Z,41.50
2022-10-19T03:44:10.745Z,41.42
2022-10-19T03:46:38.818Z,42.00
2022-10-19T03:49:06.415Z,42.05
2022-10-19T03:51:34.438Z,39.67
2022-10-19T03:54:07.352Z,41.58
2022-10-19T03:56:35.843Z,40.78
2022-10-19T03:59:04.848Z,43.72
2022-10-19T04:01:35.004Z,43.78
2022-10-19T04:04:06.008Z,43.80
2022-10-19T04:06:38.408Z,43.17
2022-10-19T04:09:06.964Z,46.08
2022-10-19T04:11:34.996Z,44.50
2022-10-19T04:14:02.686Z,43.28
2022-10-19T04:16:31.429Z,45.42
2022-10-19T04:18:59.282Z,46.92
2022-10-19T04:21:32.311Z,45.50
2022-10-19T04:24:11.749Z,44.28
2022-10-19T04:26:50.760Z,45.58
2022-10-19T04:29:19.880Z,44.75
2022-10-19T04:31:49.609Z,45.30
2022-10-19T04:34:17.176Z,45.65
2022-10-19T04:36:44.198Z,44.08
2022-10-19T04:39:11.646Z,42.28
2022-10-19T04:41:39.086Z,43.28
2022-10-19T04:44:06.888Z,43.08
2022-10-19T04:46:33.917Z,42.15
2022-10-19T04:49:00.944Z,42.15
2022-10-19T04:51:28.289Z,41.20
2022-10-19T04:53:59.647Z,41.05
2022-10-19T04:56:28.265Z,39.72
2022-10-19T04:58:57.673Z,40.47
2022-10-19T05:01:26.790Z,42.90
2022-10-19T05:03:58.757Z,43.97
2022-10-19T05:06:26.487Z,43.55
2022-10-19T05:08:53.816Z,43.17
2022-10-19T05:11:21.405Z,42.80
2022-10-19T05:13:48.994Z,43.75
2022-10-19T05:16:19.227Z,42.72
2022-10-19T05:18:50.970Z,43.70
2022-10-19T05:21:19.634Z,44.80
2022-10-19T05:23:47.092Z,43.75
2022-10-19T05:26:20.289Z,46.10
2022-10-19T05:28:57.290Z,43.90
2022-10-19T05:31:29.960Z,45.17
2022-10-19T05:33:57.750Z,50.33
2022-10-19T05:36:32.491Z,49.92
2022-10-19T05:39:03.934Z,49.53
2022-10-19T05:41:30.902Z,50.13
2022-10-19T05:44:00.102Z,47.60
2022-10-19T05:46:29.370Z,47.70
2022-10-19T05:48:57.651Z,47.92
2022-10-19T05:51:26.608Z,46.88
2022-10-19T05:53:55.137Z,43.73
2022-10-19T05:56:25.170Z,43.80
2022-10-19T05:58:53.409Z,43.40
2022-10-19T06:01:20.547Z,42.90
2022-10-19T06:03:51.983Z,42.88
2022-10-19T06:06:19.467Z,41.25
2022-10-19T06:08:47.077Z,40.88
2022-10-19T06:11:16.751Z,40.80
2022-10-19T06:13:45.869Z,37.03
2022-10-19T06:16:15.158Z,35.03
2022-10-19T06:18:42.953Z,37.22
2022-10-19T06:21:18.800Z,35.40
2022-10-19T06:23:50.856Z,35.33
2022-10-19T06:26:18.038Z,36.60
2022-10-19T06:28:45.458Z,32.47
2022-10-19T06:31:13.725Z,34.08
2022-10-19T06:33:42.995Z,33.30
2022-10-19T06:36:15.272Z,31.83
2022-10-19T06:38:43.528Z,32.88
2022-10-19T06:41:11.844Z,31.30
2022-10-19T06:43:39.302Z,32.95
2022-10-19T06:46:12.910Z,32.33
2022-10-19T06:48:40.193Z,32.58
2022-10-19T06:51:07.893Z,33.45
2022-10-19T06:53:36.788Z,33.05
2022-10-19T06:56:06.080Z,31.77
2022-10-19T06:58:37.800Z,30.90
2022-10-19T07:01:07.883Z,30.27
2022-10-19T07:03:35.923Z,34.45
2022-10-19T07:06:05.740Z,33.38
2022-10-19T07:11:03.118Z,33.28
2022-10-19T07:13:30.910Z,32.47
2022-10-19T07:16:07.082Z,33.60
2022-10-19T07:18:36.032Z,32.80
2022-10-19T07:21:06.118Z,32.30
2022-10-19T07:23:35.014Z,33.47
2022-10-19T07:26:14.095Z,34.60
2022-10-19T07:28:43.967Z,33.90
2022-10-19T07:31:14.479Z,34.50
2022-10-19T07:33:41.540Z,35.63
2022-10-19T07:36:10.304Z,34.78
2022-10-19T07:38:37.791Z,36.30
2022-10-19T07:41:10.320Z,36.53
2022-10-19T07:43:37.645Z,35.53
2022-10-19T07:46:12.354Z,34.67
2022-10-19T07:48:39.552Z,35.78
2022-10-19T07:51:08.263Z,36.20
2022-10-19T07:53:36.075Z,35.65
2022-10-19T07:56:23.950Z,34.53
2022-10-19T07:58:52.994Z,34.67
2022-10-19T08:01:22.591Z,32.37
2022-10-19T08:06:38.852Z,32.58
2022-10-19T08:09:06.219Z,32.55
2022-10-19T08:11:34.883Z,32.00
2022-10-19T08:14:05.213Z,29.42
2022-10-19T08:16:41.877Z,33.72
2022-10-19T08:19:14.413Z,29.45
2022-10-19T08:21:44.164Z,30.45
2022-10-19T08:26:41.027Z,27.13
2022-10-19T08:29:12.457Z,28.83
2022-10-19T08:31:40.301Z,28.08
2022-10-19T08:34:07.859Z,31.30
2022-10-19T08:36:35.825Z,34.22
2022-10-19T08:39:06.040Z,28.38
2022-10-19T08:41:53.381Z,28.52
2022-10-19T08:44:29.403Z,26.77
2022-10-19T08:47:23.209Z,28.02
2022-10-19T08:49:51.222Z,26.88
2022-10-19T08:52:21.452Z,26.38
2022-10-19T08:54:55.814Z,25.90
2022-10-19T08:57:35.190Z,25.92
2022-10-19T09:00:15.668Z,28.75
2022-10-19T09:03:00.952Z,25.13
2022-10-19T09:05:57.730Z,25.48
2022-10-19T09:08:24.984Z,25.38
2022-10-19T09:10:54.188Z,25.30
2022-10-19T09:14:03.754Z,24.92
2022-10-19T09:16:30.171Z,25.20
2022-10-19T09:18:57.265Z,24.77
2022-10-19T09:21:45.915Z,26.15
2022-10-19T09:24:36.605Z,26.25
2022-10-19T09:27:04.006Z,26.08
2022-10-19T09:29:36.708Z,25.55
2022-10-19T09:32:10.182Z,24.98
2022-10-19T09:34:43.964Z,25.05
2022-10-19T09:37:20.064Z,24.70
2022-10-19T09:39:55.007Z,25.27
2022-10-19T09:42:30.505Z,24.70
2022-10-19T09:45:00.619Z,24.55
2022-10-19T09:47:41.023Z,26.02
2022-10-19T09:50:27.150Z,26.60
2022-10-19T09:52:58.321Z,25.73
2022-10-19T09:55:44.607Z,26.35
2022-10-19T09:58:15.355Z,25.80
2022-10-19T10:00:47.155Z,25.08
2022-10-19T10:03:26.124Z,21.73
2022-10-19T10:05:57.437Z,22.40
2022-10-19T10:08:27.821Z,23.38
2022-10-19T10:10:58.938Z,22.17
2022-10-19T10:13:28.232Z,21.88
2022-10-19T10:16:01.751Z,21.98
2022-10-19T10:18:30.042Z,23.25
2022-10-19T10:21:11.325Z,23.83
2022-10-19T10:23:38.678Z,22.83
2022-10-19T10:26:16.070Z,24.02
2022-10-19T10:28:49.337Z,22.52
2022-10-19T10:31:22.590Z,22.50
2022-10-19T10:34:11.156Z,22.48
2022-10-19T10:36:53.898Z,22.60
2022-10-19T10:39:35.931Z,22.50
2022-10-19T10:42:16.845Z,21.20
2022-10-19T10:44:51.884Z,22.42
2022-10-19T10:47:23.401Z,22.30
2022-10-19T10:49:59.448Z,22.30
2022-10-19T10:52:31.081Z,23.38
2022-10-19T10:54:59.848Z,22.60
2022-10-19T10:57:31.162Z,23.58
2022-10-19T11:00:24.164Z,24.55
2022-10-19T11:03:21.035Z,23.85
2022-10-19T11:05:56.889Z,23.13
2022-10-19T11:08:32.298Z,20.65
2022-10-19T11:11:42.143Z,21.05
2022-10-19T11:14:28.039Z,19.92
2022-10-19T11:16:59.265Z,19.73
2022-10-19T11:19:34.442Z,18.75
2022-10-19T11:22:26.320Z,17.67
2022-10-19T11:25:21.859Z,19.00
2022-10-19T11:28:00.879Z,16.50
2022-10-19T11:30:29.564Z,19.42
2022-10-19T11:33:05.368Z,18.30
2022-10-19T11:35:37.094Z,18.25
2022-10-19T11:38:29.552Z,17.50
2022-10-19T11:41:17.265Z,18.00
2022-10-19T11:43:56.913Z,18.15
2022-10-19T11:46:45.841Z,17.80
2022-10-19T11:49:31.783Z,17.35
2022-10-19T11:52:24.021Z,16.70
2022-10-19T11:55:18.448Z,15.93
2022-10-19T11:57:54.511Z,15.93
2022-10-19T12:00:38.007Z,15.77
2022-10-19T12:03:16.993Z,19.02
2022-10-19T12:06:09.457Z,14.35
2022-10-19T12:08:58.347Z,14.65
2022-10-19T12:12:07.235Z,15.00
2022-10-19T12:14:38.777Z,15.65
2022-10-19T12:20:05.503Z,14.95
2022-10-19T12:22:34.917Z,14.75
2022-10-19T12:25:02.415Z,15.50
2022-10-19T12:27:38.442Z,16.55
2022-10-19T12:30:18.883Z,14.57
2022-10-19T12:32:55.617Z,15.52
2022-10-19T12:35:55.455Z,15.43
2022-10-19T12:38:34.817Z,15.43
2022-10-19T12:41:12.778Z,14.13
2022-10-19T12:44:22.515Z,14.77
2022-10-19T12:46:56.453Z,13.80
2022-10-19T12:49:31.387Z,14.50
2022-10-19T12:52:00.654Z,14.65
2022-10-19T12:54:31.474Z,14.20
2022-10-19T12:57:01.187Z,13.98
2022-10-19T12:59:35.293Z,15.05
2022-10-19T13:02:06.570Z,14.30
2022-10-19T13:04:36.448Z,14.63
2022-10-19T13:07:03.476Z,13.65
2022-10-19T13:09:30.576Z,13.75
2022-10-19T13:12:19.910Z,13.63
2022-10-19T13:14:52.655Z,13.88
2022-10-19T13:17:36.579Z,13.50
2022-10-19T13:20:15.437Z,13.43
2022-10-19T13:22:49.082Z,13.57
2022-10-19T13:25:35.303Z,13.77
2022-10-19T13:28:02.597Z,13.35
2022-10-19T13:30:38.721Z,13.55
2022-10-19T13:33:29.970Z,13.95
2022-10-19T13:35:59.618Z,14.02
2022-10-19T13:41:16.572Z,14.68
2022-10-19T13:44:14.108Z,13.68
2022-10-19T13:46:57.899Z,14.05
2022-10-19T13:49:41.391Z,14.55
2022-10-19T13:52:08.419Z,13.20
2022-10-19T13:54:42.190Z,14.02
2022-10-19T13:57:21.128Z,13.68
2022-10-19T13:59:59.262Z,14.25
2022-10-19T14:02:53.252Z,14.13
2022-10-19T14:05:47.867Z,13.73
2022-10-19T14:08:33.620Z,14.82
2022-10-19T14:11:06.002Z,14.20
2022-10-19T14:13:33.037Z,14.82
2022-10-19T14:16:02.987Z,13.13
2022-10-19T14:18:32.321Z,13.35
2022-10-19T14:21:08.361Z,12.85
2022-10-19T14:23:40.271Z,13.80
2022-10-19T14:26:14.822Z,12.32
2022-10-19T14:28:43.277Z,11.48
2022-10-19T14:31:17.662Z,12.73
2022-10-19T14:33:48.315Z,12.30
2022-10-19T14:36:22.075Z,12.68
2022-10-19T14:38:53.385Z,11.82
2022-10-19T14:44:02.953Z,11.00
2022-10-19T14:46:32.641Z,11.45
2022-10-19T14:49:02.397Z,12.45
2022-10-19T14:51:57.479Z,14.70
2022-10-19T14:54:36.271Z,14.07
2022-10-19T14:57:15.976Z,12.40
2022-10-19T14:59:49.825Z,13.45
2022-10-19T15:02:31.371Z,11.93
2022-10-19T15:05:01.283Z,12.32
2022-10-19T15:07:40.597Z,14.38
2022-10-19T15:10:35.750Z,12.88
2022-10-19T15:13:06.543Z,12.52
2022-10-19T15:15:36.163Z,13.85
2022-10-19T15:20:49.147Z,13.45
2022-10-19T15:23:37.810Z,13.50
2022-10-19T15:26:17.636Z,13.82
2022-10-19T15:28:45.816Z,14.07
2022-10-19T15:31:26.793Z,13.98
2022-10-19T15:33:59.632Z,15.27
2022-10-19T15:36:28.283Z,13.75
2022-10-19T15:39:06.165Z,14.23
2022-10-19T15:41:45.145Z,14.90
2022-10-19T15:44:45.859Z,15.27
2022-10-19T15:47:19.248Z,16.15
2022-10-19T15:49:53.724Z,15.60
2022-10-19T15:52:26.727Z,15.80
2022-10-19T15:54:56.429Z,15.90
2022-10-19T15:57:37.977Z,15.45
2022-10-19T16:00:15.504Z,15.85
2022-10-19T16:02:42.715Z,15.20
2022-10-19T16:05:09.817Z,17.55
2022-10-19T16:07:39.599Z,21.13
2022-10-19T16:10:08.381Z,17.73
2022-10-19T16:12:35.366Z,18.90
2022-10-19T16:15:02.327Z,21.90
2022-10-19T16:17:29.329Z,21.67
2022-10-19T16:19:56.336Z,20.67
2022-10-19T16:22:23.332Z,19.40
2022-10-19T16:24:50.436Z,17.63
2022-10-19T16:27:17.456Z,17.67
2022-10-19T16:29:44.777Z,17.30
2022-10-19T16:32:12.170Z,18.05
2022-10-19T16:34:39.290Z,22.58
2022-10-19T16:37:07.262Z,18.38
2022-10-19T16:39:35.087Z,19.00
2022-10-19T16:42:02.179Z,18.67
2022-10-19T16:44:29.242Z,18.95
2022-10-19T16:46:57.054Z,19.63
2022-10-19T16:49:24.439Z,20.58
2022-10-19T16:51:54.705Z,19.50
2022-10-19T16:54:26.900Z,21.85
2022-10-19T16:56:55.756Z,18.95
2022-10-19T16:59:22.916Z,18.30
2022-10-19T17:01:50.043Z,22.35
2022-10-19T17:04:18.204Z,21.05
2022-10-19T17:06:45.525Z,21.45
2022-10-19T17:11:59.659Z,17.48
2022-10-19T17:14:26.674Z,19.10
2022-10-19T17:16:53.729Z,17.20
2022-10-19T17:19:20.736Z,18.77
2022-10-19T17:21:49.472Z,19.98
2022-10-19T17:24:22.033Z,17.50
2022-10-19T17:26:51.266Z,18.15
2022-10-19T17:29:19.274Z,18.93
2022-10-19T17:31:46.849Z,18.27
2022-10-19T17:34:14.283Z,19.60
2022-10-19T17:36:46.358Z,18.55
2022-10-19T17:39:24.418Z,19.27
2022-10-19T17:42:02.070Z,17.60
2022-10-19T17:44:30.746Z,24.02
2022-10-19T17:46:58.239Z,23.73
2022-10-19T17:49:25.275Z,22.10
2022-10-19T17:51:53.607Z,21.52
2022-10-19T17:54:20.832Z,22.40
2022-10-19T17:56:47.959Z,22.27
2022-10-19T17:59:15.044Z,19.15
2022-10-19T18:01:42.535Z,18.73
2022-10-19T18:04:09.591Z,19.75
2022-10-19T18:06:37.585Z,19.77
2022-10-19T18:09:07.520Z,20.60
2022-10-19T18:11:43.485Z,20.15
2022-10-19T18:14:12.559Z,23.52
2022-10-19T18:16:44.739Z,23.73
2022-10-19T18:19:13.190Z,23.17
2022-10-19T18:21:42.035Z,23.45
2022-10-19T18:24:15.206Z,22.40
2022-10-19T18:26:43.739Z,20.80
2022-10-19T18:29:17.452Z,21.15
2022-10-19T18:31:44.926Z,22.50
2022-10-19T18:34:16.199Z,22.45
2022-10-19T18:36:44.330Z,22.60
2022-10-19T18:39:13.031Z,23.67
2022-10-19T18:41:41.183Z,23.40
2022-10-19T18:44:11.725Z,21.08
2022-10-19T18:46:39.092Z,21.70
2022-10-19T18:49:08.337Z,22.15
2022-10-19T18:51:36.106Z,23.35
2022-10-19T18:54:03.195Z,22.75
2022-10-19T18:56:30.613Z,24.48
2022-10-19T18:58:57.847Z,23.13
2022-10-19T19:01:27.416Z,21.00
2022-10-19T19:03:57.361Z,20.08
2022-10-19T19:06:29.587Z,21.08
2022-10-19T19:08:58.671Z,20.65
2022-10-19T19:11:29.664Z,21.85
2022-10-19T19:14:08.107Z,20.25
2022-10-19T19:16:38.058Z,20.48
2022-10-19T19:19:06.473Z,19.23
2022-10-19T19:21:35.122Z,17.15
2022-10-19T19:24:04.570Z,16.20
2022-10-19T19:26:34.585Z,15.70
2022-10-19T19:29:02.658Z,18.42
2022-10-19T19:31:29.732Z,18.17
2022-10-19T19:34:00.416Z,19.08
2022-10-19T19:36:28.309Z,19.75
2022-10-19T19:38:57.349Z,17.88
2022-10-19T19:41:27.841Z,16.17
2022-10-19T19:43:57.645Z,16.80
2022-10-19T19:46:25.079Z,16.42
2022-10-19T19:48:59.165Z,14.50
2022-10-19T19:51:26.675Z,14.23
2022-10-19T19:53:53.666Z,14.48
2022-10-19T19:56:21.067Z,14.48
2022-10-19T19:58:48.105Z,12.43
2022-10-19T20:01:18.319Z,12.55
2022-10-19T20:03:46.800Z,12.52
2022-10-19T20:06:16.224Z,12.27
2022-10-19T20:08:43.678Z,11.95
2022-10-19T20:11:14.053Z,12.88
2022-10-19T20:13:41.137Z,13.02
2022-10-19T20:16:22.663Z,13.82
2022-10-19T20:18:56.108Z,14.13
2022-10-19T20:21:25.700Z,12.00
2022-10-19T20:23:52.743Z,13.25
2022-10-19T20:26:22.750Z,12.73
2022-10-19T20:28:50.654Z,13.55
2022-10-19T20:31:18.739Z,13.40
2022-10-19T20:33:47.665Z,13.32
2022-10-19T20:36:21.356Z,13.77
2022-10-19T20:38:51.422Z,13.13
2022-10-19T20:41:19.922Z,12.20
2022-10-19T20:43:48.218Z,12.63
2022-10-19T20:46:17.982Z,12.82
2022-10-19T20:48:45.998Z,12.75
2022-10-19T20:51:13.602Z,11.10
2022-10-19T20:53:42.128Z,13.18
2022-10-19T20:56:10.950Z,11.95
2022-10-19T20:58:40.747Z,11.05
2022-10-19T21:01:10.247Z,10.50
2022-10-19T21:03:37.774Z,10.25
2022-10-19T21:06:07.029Z,10.52
2022-10-19T21:08:35.561Z,10.75
2022-10-19T21:11:12.238Z,11.35
2022-10-19T21:13:39.379Z,11.48
2022-10-19T21:16:18.387Z,10.60
2022-10-19T21:18:47.707Z,11.10
2022-10-19T21:21:21.921Z,10.15
2022-10-19T21:23:53.695Z,11.38
2022-10-19T21:26:21.170Z,10.38
2022-10-19T21:28:49.918Z,9.60
2022-10-19T21:31:18.105Z,9.05
2022-10-19T21:33:45.745Z,9.15
2022-10-19T21:36:14.797Z,7.43
2022-10-19T21:38:42.816Z,7.97
2022-10-19T21:41:22.283Z,8.52
2022-10-19T21:43:52.566Z,8.07
2022-10-19T21:46:21.665Z,9.80
2022-10-19T21:48:49.498Z,7.90
2022-10-19T21:51:28.267Z,8.73
2022-10-19T21:53:55.235Z,8.98
2022-10-19T21:56:22.549Z,8.82
2022-10-19T21:58:51.695Z,9.27
2022-10-19T22:01:21.045Z,9.40
2022-10-19T22:03:48.068Z,9.27
2022-10-19T22:06:15.690Z,9.07
2022-10-19T22:08:49.218Z,11.52
2022-10-19T22:11:16.399Z,9.25
2022-10-19T22:13:43.804Z,8.98
2022-10-19T22:16:17.578Z,8.52
2022-10-19T22:18:45.124Z,9.05
2022-10-19T22:21:15.143Z,8.93
2022-10-19T22:23:43.214Z,8.75
2022-10-19T22:26:15.538Z,8.85
2022-10-19T22:28:43.251Z,8.15
2022-10-19T22:31:11.123Z,9.13
2022-10-19T22:33:38.821Z,8.60
2022-10-19T22:36:07.883Z,7.97
2022-10-19T22:38:35.511Z,8.55
2022-10-19T22:41:58.815Z,8.10
2022-10-19T22:44:40.789Z,9.60
2022-10-19T22:47:07.924Z,8.90
2022-10-19T22:49:34.979Z,8.73
2022-10-19T22:52:01.929Z,8.25
2022-10-19T22:54:28.909Z,8.23
2022-10-19T22:56:55.984Z,8.63
2022-10-19T22:59:22.848Z,8.27
2022-10-19T23:01:52.370Z,9.18
2022-10-19T23:04:19.615Z,8.05
2022-10-19T23:06:46.603Z,10.18
2022-10-19T23:09:13.646Z,8.73
2022-10-19T23:11:40.605Z,9.20
2022-10-19T23:14:08.194Z,7.97
2022-10-19T23:16:35.169Z,8.32
2022-10-19T23:19:02.225Z,8.50
2022-10-19T23:21:29.246Z,7.85
2022-10-19T23:23:57.254Z,11.60
2022-10-19T23:26:24.976Z,8.18
2022-10-19T23:28:52.671Z,8.18
2022-10-19T23:31:26.153Z,8.75
2022-10-19T23:33:53.808Z,8.25
2022-10-19T23:36:26.916Z,8.10
2022-10-19T23:38:55.178Z,8.23
2022-10-19T23:41:22.868Z,8.18
2022-10-19T23:43:50.134Z,8.63
2022-10-19T23:46:17.194Z,9.57
2022-10-19T23:48:44.161Z,8.45
2022-10-19T23:51:14.170Z,7.97
2022-10-19T23:56:15.813Z,9.10
2022-10-19T23:58:42.998Z,8.70
